Time;durP1;ratioP1;P1;durP2;ratioP2;P2;SDS_P1;SDS_P2;PMS_P1;PMS_P2;Temp;Humidity;BMP_temperature;BMP_pressure;BME280_temperature;BME280_humidity;BME280_pressure;Samples;Min_cycle;Max_cycle;Signal;HPM_P1;HPM_P2
2023/08/27 00:00:58;;;;;;;7.88;3.47;;;;;;;19.05;73.58;100094.03;4092983;29;20054;-67
2023/08/27 00:03:01;;;;;;;8.13;3.53;;;;;;;19.06;73.76;100072.06;4106124;28;20140;-66
2023/08/27 00:05:07;;;;;;;8.20;3.35;;;;;;;19.09;73.37;100064.06;4111722;28;20045;-66
2023/08/27 00:07:10;;;;;;;5.75;3.33;;;;;;;19.02;73.24;100058.09;4099357;28;20039;-66
2023/08/27 00:09:13;;;;;;;9.05;3.33;;;;;;;19.00;73.89;100048.53;4090940;29;20505;-66
2023/08/27 00:11:16;;;;;;;7.13;3.28;;;;;;;19.01;73.60;100055.50;4095661;29;20043;-66
2023/08/27 00:13:19;;;;;;;6.70;3.83;;;;;;;19.02;74.03;100057.22;4093223;29;20062;-67
2023/08/27 00:15:23;;;;;;;8.80;3.90;;;;;;;19.03;74.01;100058.97;4099994;28;20077;-67
2023/08/27 00:17:27;;;;;;;5.03;3.13;;;;;;;19.02;73.96;100046.69;4099248;28;20075;-66
2023/08/27 00:19:30;;;;;;;11.40;3.65;;;;;;;19.00;74.28;100064.31;4098233;28;20484;-66
2023/08/27 00:21:33;;;;;;;5.97;3.50;;;;;;;19.01;74.15;100082.72;4098729;29;20035;-66
2023/08/27 00:23:38;;;;;;;8.55;3.83;;;;;;;19.01;73.93;100090.63;4085671;28;20039;-67
2023/08/27 00:25:44;;;;;;;5.47;3.30;;;;;;;19.02;73.84;100078.31;4084433;29;20486;-66
2023/08/27 00:27:46;;;;;;;7.80;3.85;;;;;;;18.99;74.11;100067.84;4083306;29;20046;-67
2023/08/27 00:29:49;;;;;;;7.00;3.08;;;;;;;19.01;74.38;100066.91;4089165;29;20039;-66
2023/08/27 00:31:54;;;;;;;5.32;3.13;;;;;;;19.04;74.53;100073.00;4082642;29;20051;-66
2023/08/27 00:33:57;;;;;;;;;;;;;;;18.93;74.85;100075.94;4083622;29;20135;-66
2023/08/27 00:35:59;;;;;;;5.40;2.90;;;;;;;18.94;74.97;100069.72;4092433;29;19929;-66
2023/08/27 00:38:01;;;;;;;5.50;3.13;;;;;;;18.99;74.55;100067.84;4107126;28;20378;-66
2023/08/27 00:40:05;;;;;;;6.55;3.25;;;;;;;18.99;74.76;100083.66;4093543;29;20043;-66
2023/08/27 00:42:11;;;;;;;5.70;3.30;;;;;;;18.99;74.85;100086.31;4103402;23;20057;-68
2023/08/27 00:44:14;;;;;;;8.27;3.65;;;;;;;18.99;74.33;100089.78;4090178;28;20051;-68
2023/08/27 00:46:18;;;;;;;9.48;3.28;;;;;;;19.00;74.47;100082.75;4074164;29;20044;-68
2023/08/27 00:48:22;;;;;;;5.20;2.92;;;;;;;19.00;74.60;100081.00;4092409;28;20096;-68
2023/08/27 00:50:25;;;;;;;6.65;2.83;;;;;;;19.00;75.24;100088.03;4079230;29;20046;-68
2023/08/27 00:52:28;;;;;;;10.35;3.10;;;;;;;19.01;74.76;100081.84;4079344;29;20062;-68
2023/08/27 00:54:33;;;;;;;6.90;3.20;;;;;;;19.03;74.94;100082.69;4078785;29;20166;-68
2023/08/27 00:56:36;;;;;;;6.20;3.17;;;;;;;18.98;74.85;100080.19;4092412;29;20039;-68
2023/08/27 00:58:40;;;;;;;7.25;2.95;;;;;;;18.96;74.87;100078.47;4079007;29;20153;-68
2023/08/27 01:00:43;;;;;;;7.03;3.60;;;;;;;18.96;75.17;100086.38;4080543;29;20506;-68
2023/08/27 01:02:47;;;;;;;12.95;4.03;;;;;;;18.96;75.31;100092.50;4078309;29;20046;-68
2023/08/27 01:04:52;;;;;;;5.82;3.00;;;;;;;18.99;74.93;100092.41;4062940;29;20067;-68
2023/08/27 01:06:55;;;;;;;6.63;2.85;;;;;;;18.97;75.34;100096.03;4077700;29;20090;-68
2023/08/27 01:09:05;;;;;;;9.13;3.05;;;;;;;18.95;74.87;100092.53;4079938;29;20039;-68
2023/08/27 01:11:18;;;;;;;7.18;3.33;;;;;;;18.92;75.31;100092.63;4078570;29;20099;-68
2023/08/27 01:13:29;;;;;;;6.10;3.25;;;;;;;18.92;75.57;100082.09;4078043;29;20527;-68
2023/08/27 01:15:34;;;;;;;5.20;2.65;;;;;;;18.90;76.16;100087.41;4078735;29;20043;-68
2023/08/27 01:17:37;;;;;;;;;;;;;;;18.81;76.77;100085.00;4078870;29;20063;-68
2023/08/27 01:19:41;;;;;;;6.53;3.20;;;;;;;18.87;76.08;100079.59;4093968;28;20709;-68
2023/08/27 01:21:45;;;;;;;6.70;3.35;;;;;;;18.90;76.07;100078.66;4094015;28;20560;-68
2023/08/27 01:23:48;;;;;;;8.48;3.40;;;;;;;18.92;75.78;100082.09;4078431;29;20044;-68
2023/08/27 01:26:11;;;;;;;8.15;3.13;;;;;;;18.92;75.75;100068.94;4091723;29;20188;-68
2023/08/27 01:28:22;;;;;;;5.50;3.22;;;;;;;18.93;75.23;100062.75;4061988;29;20048;-68
2023/08/27 01:30:30;;;;;;;4.45;3.03;;;;;;;18.93;75.74;100070.66;4092843;28;20039;-68
2023/08/27 01:32:39;;;;;;;8.32;3.20;;;;;;;18.94;75.55;100067.09;4081155;29;20047;-68
2023/08/27 01:34:42;;;;;;;6.53;3.13;;;;;;;18.92;76.04;100068.94;4080008;29;20110;-68
2023/08/27 01:36:47;;;;;;;8.52;3.70;;;;;;;18.94;75.57;100056.56;4079916;29;20525;-68
2023/08/27 01:38:50;;;;;;;7.55;3.08;;;;;;;18.95;75.73;100055.66;4097638;29;20031;-68
2023/08/27 01:40:53;;;;;;;8.75;3.70;;;;;;;18.96;75.39;100067.94;4081896;29;20039;-68
2023/08/27 01:42:56;;;;;;;6.03;3.10;;;;;;;18.92;75.46;100067.16;4080441;29;20067;-68
2023/08/27 01:45:00;;;;;;;5.07;2.90;;;;;;;18.91;75.76;100064.56;4081206;29;20043;-68
2023/08/27 01:47:03;;;;;;;10.82;3.47;;;;;;;18.94;75.91;100061.84;4079072;29;20040;-68
2023/08/27 01:49:06;;;;;;;7.93;2.85;;;;;;;18.91;75.97;100054.00;4081968;29;20048;-68
2023/08/27 01:51:08;;;;;;;5.70;2.78;;;;;;;18.87;76.02;100058.50;4077816;29;20047;-68
2023/08/27 01:53:13;;;;;;;6.40;3.22;;;;;;;18.93;75.87;100052.22;4080388;29;20051;-68
2023/08/27 01:55:17;;;;;;;5.05;3.17;;;;;;;18.93;75.69;100062.75;4077970;29;20096;-68
2023/08/27 01:57:20;;;;;;;8.05;3.25;;;;;;;18.92;75.78;100068.94;4078251;29;20039;-68
2023/08/27 01:59:23;;;;;;;7.78;3.28;;;;;;;18.91;76.03;100067.19;4080450;29;20050;-68
2023/08/27 02:01:25;;;;;;;7.53;3.28;;;;;;;18.97;76.00;100043.34;4079262;29;20039;-68
2023/08/27 02:03:28;;;;;;;7.63;3.45;;;;;;;18.98;75.54;100034.50;4080880;29;20063;-68
2023/08/27 02:05:32;;;;;;;8.07;3.83;;;;;;;18.88;75.66;100022.50;4083618;29;20108;-68
2023/08/27 02:07:37;;;;;;;7.83;4.43;;;;;;;18.83;75.96;100005.00;4083921;29;20044;-68
2023/08/27 02:09:42;;;;;;;10.88;3.97;;;;;;;18.83;76.20;100004.16;4100462;29;20287;-68
2023/08/27 02:11:45;;;;;;;8.00;3.42;;;;;;;18.89;75.82;100009.28;4074870;29;20042;-68
2023/08/27 02:13:48;;;;;;;8.10;4.18;;;;;;;18.80;75.62;100007.72;4084548;29;20047;-68
2023/08/27 02:15:51;;;;;;;4.85;3.25;;;;;;;18.77;76.14;100005.19;4084621;29;20090;-68
2023/08/27 02:17:57;;;;;;;7.65;3.42;;;;;;;18.75;76.07;100007.00;4084049;29;20063;-68
2023/08/27 02:20:00;;;;;;;10.30;4.13;;;;;;;18.75;76.36;100007.00;4100378;29;20070;-68
2023/08/27 02:22:02;;;;;;;6.70;3.30;;;;;;;18.77;76.30;100012.22;4085745;29;20040;-68
2023/08/27 02:24:06;;;;;;;6.53;3.30;;;;;;;18.74;76.46;100001.78;4084527;29;20044;-68
2023/08/27 02:26:09;;;;;;;7.63;3.80;;;;;;;18.75;76.80;100009.63;4084408;29;20064;-68
2023/08/27 02:28:12;;;;;;;6.13;2.95;;;;;;;18.77;76.63;100020.13;4098955;29;20210;-68
2023/08/27 02:30:15;;;;;;;6.10;3.05;;;;;;;18.78;76.68;100022.72;4100199;29;20051;-68
2023/08/27 02:32:18;;;;;;;8.30;3.63;;;;;;;18.77;76.49;100020.97;4100231;29;20043;-68
2023/08/27 02:34:21;;;;;;;6.93;3.30;;;;;;;18.75;76.55;100025.44;4098487;29;20350;-68
2023/08/27 02:36:24;;;;;;;4.90;2.50;;;;;;;18.75;76.47;100025.44;4077646;29;20046;-68
2023/08/27 02:38:27;;;;;;;6.63;3.58;;;;;;;18.77;76.23;100023.63;4079418;29;20610;-68
2023/08/27 02:40:31;;;;;;;5.63;2.95;;;;;;;18.72;76.36;100035.16;4077854;29;20115;-68
2023/08/27 02:42:37;;;;;;;8.40;3.88;;;;;;;18.64;77.03;100040.66;4093206;28;21020;-68
2023/08/27 02:44:40;;;;;;;6.78;3.15;;;;;;;18.63;76.70;100028.38;4080687;29;20380;-68
2023/08/27 02:46:43;;;;;;;8.60;3.63;;;;;;;18.65;76.46;100021.31;4079102;29;20126;-68
2023/08/27 02:48:46;;;;;;;7.72;3.03;;;;;;;18.66;76.54;100028.28;4095048;29;20612;-68
2023/08/27 02:50:49;;;;;;;8.85;3.33;;;;;;;18.69;76.62;100033.50;4078245;29;20028;-68
2023/08/27 02:52:51;;;;;;;5.72;3.03;;;;;;;18.73;76.35;100024.59;4078208;29;20047;-68
2023/08/27 02:54:54;;;;;;;6.18;3.40;;;;;;;18.74;76.09;100021.06;4080132;29;20503;-68
2023/08/27 02:56:57;;;;;;;7.30;3.50;;;;;;;18.71;75.93;100026.41;4078933;29;20047;-68
2023/08/27 02:59:01;;;;;;;7.30;3.03;;;;;;;18.77;75.73;100017.50;4079641;29;20042;-68
2023/08/27 03:01:04;;;;;;;8.43;3.72;;;;;;;18.73;75.59;100011.44;4078028;29;20046;-68
2023/08/27 03:03:07;;;;;;;7.03;3.25;;;;;;;18.67;75.91;100020.38;4079092;29;20043;-68
2023/08/27 03:05:10;;;;;;;6.80;2.90;;;;;;;18.65;76.35;100024.81;4097015;28;20579;-68
2023/08/27 03:07:13;;;;;;;6.65;3.00;;;;;;;18.64;76.42;100019.59;4078065;29;20541;-68
2023/08/27 03:09:16;;;;;;;5.25;3.42;;;;;;;18.65;76.44;100018.69;4082405;29;20051;-69
2023/08/27 03:11:19;;;;;;;10.68;3.40;;;;;;;18.69;75.61;100015.06;4078159;29;20044;-68
2023/08/27 03:13:22;;;;;;;7.35;3.58;;;;;;;18.71;75.33;100013.25;4063425;29;20048;-68
2023/08/27 03:15:26;;;;;;;7.18;3.63;;;;;;;18.71;75.22;100023.78;4079214;29;20067;-68
2023/08/27 03:17:29;;;;;;;7.88;3.35;;;;;;;18.68;75.84;100026.50;4092903;29;20050;-68
2023/08/27 03:19:33;;;;;;;6.13;2.80;;;;;;;18.70;75.55;100024.69;4094140;28;20117;-68
2023/08/27 03:21:36;;;;;;;10.25;3.80;;;;;;;18.70;75.98;100013.28;4079650;29;20039;-68
2023/08/27 03:23:39;;;;;;;7.55;3.00;;;;;;;18.71;75.84;100015.88;4062236;29;20135;-68
2023/08/27 03:25:42;;;;;;;8.90;3.38;;;;;;;18.69;76.12;100027.34;4079324;29;20083;-68
2023/08/27 03:27:44;;;;;;;6.95;3.60;;;;;;;18.66;75.81;100023.91;4095296;29;20135;-68
2023/08/27 03:29:47;;;;;;;6.82;2.88;;;;;;;18.67;75.69;99995.81;4062198;29;20048;-68
2023/08/27 03:31:51;;;;;;;8.82;3.47;;;;;;;18.70;75.76;99982.56;4077376;29;20473;-68
2023/08/27 03:33:54;;;;;;;8.00;3.60;;;;;;;18.70;75.60;99992.22;4092828;28;20461;-68
2023/08/27 03:35:57;;;;;;;4.10;3.03;;;;;;;18.66;75.70;100002.84;4078621;29;20046;-68
2023/08/27 03:38:00;;;;;;;4.85;3.28;;;;;;;18.64;75.87;100004.63;4078233;29;20082;-68
2023/08/27 03:40:03;;;;;;;9.48;3.72;;;;;;;18.64;75.88;99990.63;4078374;29;20039;-67
2023/08/27 03:42:06;;;;;;;10.23;3.03;;;;;;;18.64;76.24;99998.53;4077787;29;20051;-68
2023/08/27 03:44:09;;;;;;;9.32;3.15;;;;;;;18.65;75.98;100000.25;4079400;29;20079;-68
2023/08/27 03:46:12;;;;;;;5.18;3.30;;;;;;;18.64;75.90;100009.06;4078252;29;20215;-68
2023/08/27 03:48:16;;;;;;;5.38;3.00;;;;;;;18.65;76.45;100001.13;4077272;29;20302;-68
2023/08/27 03:50:19;;;;;;;5.82;3.15;;;;;;;18.63;76.34;99997.66;4079853;29;20043;-68
2023/08/27 03:52:22;;;;;;;9.20;3.30;;;;;;;18.65;76.09;99997.63;4092762;29;20031;-68
2023/08/27 03:54:27;;;;;;;6.03;3.30;;;;;;;18.64;76.59;100016.94;4093238;28;20053;-68
2023/08/27 03:56:29;;;;;;;7.20;2.95;;;;;;;18.61;76.82;100009.13;4061531;29;20536;-68
2023/08/27 03:58:32;;;;;;;5.25;3.33;;;;;;;18.60;76.13;100008.28;4095341;29;20035;-68
2023/08/27 04:00:35;;;;;;;5.20;2.83;;;;;;;18.59;76.40;100006.53;4094721;29;20130;-68
2023/08/27 04:02:42;;;;;;;5.88;3.58;;;;;;;18.60;76.88;100007.41;4076691;29;20032;-68
2023/08/27 04:04:46;;;;;;;6.60;3.40;;;;;;;18.56;76.43;100003.13;4098646;29;20050;-68
2023/08/27 04:06:49;;;;;;;6.00;3.75;;;;;;;18.63;76.06;99994.16;4065743;29;20135;-68
2023/08/27 04:08:52;;;;;;;9.70;4.55;;;;;;;18.57;75.91;99996.94;4082814;29;20051;-68
2023/08/27 04:10:55;;;;;;;6.05;3.53;;;;;;;18.53;76.10;99988.28;4082221;29;20044;-67
2023/08/27 04:12:58;;;;;;;7.30;3.83;;;;;;;18.51;76.42;99986.59;4067665;29;20092;-68
2023/08/27 04:15:01;;;;;;;6.82;3.75;;;;;;;18.48;76.06;99979.63;4081197;29;20488;-68
2023/08/27 04:17:04;;;;;;;7.20;3.72;;;;;;;18.47;76.26;99981.41;4081581;29;20043;-68
2023/08/27 04:19:07;;;;;;;7.50;3.50;;;;;;;18.53;75.90;99969.84;4082696;29;20040;-68
2023/08/27 04:21:12;;;;;;;5.90;3.05;;;;;;;18.47;76.05;99975.25;4081678;29;20039;-67
2023/08/27 04:23:14;;;;;;;8.05;3.78;;;;;;;18.40;76.73;99978.94;4097935;29;20046;-68
2023/08/27 04:25:18;;;;;;;6.60;3.80;;;;;;;18.38;76.57;99975.50;4051485;29;20040;-68
2023/08/27 04:27:21;;;;;;;7.05;3.75;;;;;;;18.42;76.44;99972.75;4081728;29;20050;-68
2023/08/27 04:29:24;;;;;;;10.50;4.03;;;;;;;18.44;76.31;99965.69;4098539;29;20043;-68
2023/08/27 04:31:27;;;;;;;9.70;4.55;;;;;;;18.47;76.19;99964.72;4082760;29;20617;-68
2023/08/27 04:33:30;;;;;;;9.30;4.00;;;;;;;18.45;76.21;99970.03;4082543;29;20387;-68
2023/08/27 04:35:34;;;;;;;8.43;4.50;;;;;;;18.45;76.24;99967.41;4080662;29;20051;-68
2023/08/27 04:37:38;;;;;;;5.93;3.40;;;;;;;18.42;76.34;99974.53;4093743;29;20329;-68
2023/08/27 04:39:41;;;;;;;8.45;4.07;;;;;;;18.39;76.62;99967.56;4077000;29;20051;-68
2023/08/27 04:41:43;;;;;;;5.72;3.70;;;;;;;18.38;76.29;99962.34;4078305;29;20139;-68
2023/08/27 04:43:46;;;;;;;10.48;4.30;;;;;;;18.38;76.25;99975.50;4076851;29;20086;-68
2023/08/27 04:45:49;;;;;;;9.77;3.97;;;;;;;18.41;76.53;99967.53;4080314;29;20031;-68
2023/08/27 04:47:52;;;;;;;6.78;4.30;;;;;;;18.40;76.51;99974.56;4075992;29;20084;-68
2023/08/27 04:49:55;;;;;;;7.00;4.05;;;;;;;18.41;76.38;99973.69;4061217;29;20058;-68
2023/08/27 04:51:58;;;;;;;6.65;3.95;;;;;;;18.42;76.41;99969.28;4064207;29;20477;-68
2023/08/27 04:54:02;;;;;;;8.85;4.20;;;;;;;18.43;76.09;99952.59;4078619;29;20336;-68
2023/08/27 04:56:05;;;;;;;7.88;4.53;;;;;;;18.45;75.64;99961.28;4079164;29;20056;-68
2023/08/27 04:58:08;;;;;;;10.48;5.50;;;;;;;18.45;76.03;99962.16;4075355;29;20075;-68
2023/08/27 05:00:19;;;;;;;7.20;3.85;;;;;;;18.39;76.04;99967.56;4091659;29;20032;-68
2023/08/27 05:02:22;;;;;;;9.35;3.83;;;;;;;18.34;76.82;99969.47;4089479;28;20401;-67
2023/08/27 05:04:26;;;;;;;9.27;4.30;;;;;;;18.33;76.67;99977.41;4092973;28;20133;-68
2023/08/27 05:06:29;;;;;;;5.73;3.67;;;;;;;18.32;77.27;99981.78;4078543;29;20042;-68
2023/08/27 05:08:32;;;;;;;7.13;4.15;;;;;;;18.30;77.35;99984.47;4081335;29;20087;-67
2023/08/27 05:10:36;;;;;;;8.45;3.95;;;;;;;18.28;77.07;99985.41;4079780;29;21448;-68
2023/08/27 05:12:40;;;;;;;10.20;4.50;;;;;;;18.29;76.99;99988.00;4079096;29;20040;-68
2023/08/27 05:14:44;;;;;;;6.57;4.18;;;;;;;18.30;77.23;99989.72;4081770;29;20043;-68
2023/08/27 05:16:47;;;;;;;9.02;4.18;;;;;;;18.32;77.42;99976.53;4083466;29;20042;-68
2023/08/27 05:18:49;;;;;;;7.37;4.00;;;;;;;18.37;77.12;99973.78;4079006;29;20514;-68
2023/08/27 05:20:52;;;;;;;9.32;4.25;;;;;;;18.47;76.26;99970.00;4079876;29;20036;-68
2023/08/27 05:22:55;;;;;;;9.07;4.00;;;;;;;18.43;76.99;99971.00;4080481;29;20044;-68
2023/08/27 05:24:59;;;;;;;7.13;4.05;;;;;;;18.42;77.10;99975.38;4096894;29;20071;-68
2023/08/27 05:27:04;;;;;;;5.30;3.58;;;;;;;18.45;77.11;99967.41;4079161;29;20114;-68
2023/08/27 05:29:07;;;;;;;7.38;4.03;;;;;;;18.49;76.77;99963.78;4095498;29;20035;-67
2023/08/27 05:31:10;;;;;;;6.95;4.78;;;;;;;18.50;76.67;99964.69;4096266;28;20042;-68
2023/08/27 05:33:13;;;;;;;7.30;4.07;;;;;;;18.55;76.77;99951.38;4097099;28;20678;-68
2023/08/27 05:35:16;;;;;;;7.90;3.63;;;;;;;18.59;76.79;99953.03;4081597;29;20696;-67
2023/08/27 05:37:18;;;;;;;9.80;4.18;;;;;;;18.62;76.86;99940.66;4094821;28;20043;-68
2023/08/27 05:39:21;;;;;;;7.25;3.88;;;;;;;18.66;77.45;99949.31;4082015;29;20127;-68
2023/08/27 05:41:23;;;;;;;5.43;3.28;;;;;;;18.67;76.95;99949.28;4064414;29;20048;-68
2023/08/27 05:43:28;;;;;;;8.07;4.53;;;;;;;18.69;77.14;99951.00;4082390;29;20126;-68
2023/08/27 05:45:30;;;;;;;8.32;4.25;;;;;;;18.66;76.75;99963.34;4081993;29;20059;-68
2023/08/27 05:47:33;;;;;;;9.05;4.18;;;;;;;18.69;77.25;99954.50;4080327;29;20044;-68
2023/08/27 05:49:36;;;;;;;9.35;4.80;;;;;;;18.75;76.79;99954.34;4079887;29;20055;-68
2023/08/27 05:51:40;;;;;;;9.10;4.05;;;;;;;18.70;76.69;99955.38;4082348;29;20067;-67
2023/08/27 05:53:45;;;;;;;11.90;5.28;;;;;;;18.74;76.71;99951.75;4080419;29;20036;-67
2023/08/27 05:55:48;;;;;;;9.05;4.00;;;;;;;18.70;76.97;99950.97;4079985;29;20050;-68
2023/08/27 05:57:51;;;;;;;8.98;4.07;;;;;;;18.80;77.08;99955.06;4080842;29;20047;-68
2023/08/27 05:59:55;;;;;;;7.32;4.57;;;;;;;18.82;77.19;99955.91;4081252;29;20550;-68
2023/08/27 06:01:58;;;;;;;8.05;4.97;;;;;;;18.79;76.91;99950.72;4097268;28;20589;-68
2023/08/27 06:04:04;;;;;;;7.03;4.20;;;;;;;18.86;76.22;99940.00;4077481;29;20048;-68
2023/08/27 06:06:07;;;;;;;8.68;4.72;;;;;;;18.82;76.65;99950.63;4083696;29;20082;-67
2023/08/27 06:08:10;;;;;;;12.07;5.03;;;;;;;18.86;76.68;99950.53;4079275;29;20517;-68
2023/08/27 06:10:13;;;;;;;8.75;5.55;;;;;;;18.84;76.90;99950.59;4079306;29;20043;-65
2023/08/27 06:12:16;;;;;;;12.07;5.07;;;;;;;18.81;76.78;99940.16;4080296;29;20055;-65
2023/08/27 06:14:19;;;;;;;11.45;5.20;;;;;;;18.82;76.33;99944.47;4084346;29;20047;-65
2023/08/27 06:16:23;;;;;;;9.05;5.25;;;;;;;18.78;76.96;99956.88;4079564;29;20035;-65
2023/08/27 06:18:26;;;;;;;;;;;;;;;18.75;77.07;99950.81;4081767;29;20470;-65
2023/08/27 06:20:29;;;;;;;8.52;5.65;;;;;;;18.70;77.29;99945.69;4082513;29;20024;-65
2023/08/27 06:22:32;;;;;;;9.95;5.32;;;;;;;18.64;77.40;99956.41;4062181;29;20131;-65
2023/08/27 06:24:35;;;;;;;8.50;5.47;;;;;;;18.65;77.40;99972.16;4088769;29;20035;-65
2023/08/27 06:26:37;;;;;;;6.78;4.60;;;;;;;18.68;77.38;99992.28;4082010;29;20050;-66
2023/08/27 06:28:41;;;;;;;9.00;4.68;;;;;;;18.72;77.98;100000.94;4081202;29;20063;-65
